sensor_id;sensor_type;location;lat;lon;timestamp;temperature;humidity
573;DHT22;271;51.114;13.780;2023-12-28T00:02:33;7.90;1.00
573;DHT22;271;51.114;13.780;2023-12-28T00:05:21;7.90;1.00
573;DHT22;271;51.114;13.780;2023-12-28T00:08:10;7.90;1.00
573;DHT22;271;51.114;13.780;2023-12-28T00:10:58;7.90;1.00
573;DHT22;271;51.114;13.780;2023-12-28T00:13:45;7.90;1.00
573;DHT22;271;51.114;13.780;2023-12-28T00:16:33;7.80;1.00
573;DHT22;271;51.114;13.780;2023-12-28T00:19:23;7.70;1.00
573;DHT22;271;51.114;13.780;2023-12-28T00:22:11;7.50;1.00
573;DHT22;271;51.114;13.780;2023-12-28T00:25:00;7.40;1.00
573;DHT22;271;51.114;13.780;2023-12-28T00:27:47;7.20;1.00
573;DHT22;271;51.114;13.780;2023-12-28T00:30:35;7.00;1.00
573;DHT22;271;51.114;13.780;2023-12-28T00:33:23;7.00;1.00
573;DHT22;271;51.114;13.780;2023-12-28T00:36:10;6.90;1.00
573;DHT22;271;51.114;13.780;2023-12-28T00:38:58;6.80;1.00
573;DHT22;271;51.114;13.780;2023-12-28T00:41:47;6.90;1.00
573;DHT22;271;51.114;13.780;2023-12-28T00:44:34;6.90;1.00
573;DHT22;271;51.114;13.780;2023-12-28T00:47:22;7.00;1.00
573;DHT22;271;51.114;13.780;2023-12-28T00:50:10;7.10;1.00
573;DHT22;271;51.114;13.780;2023-12-28T00:53:01;7.20;1.00
573;DHT22;271;51.114;13.780;2023-12-28T00:55:49;6.90;1.00
573;DHT22;271;51.114;13.780;2023-12-28T00:58:40;6.70;1.00
573;DHT22;271;51.114;13.780;2023-12-28T01:01:29;6.60;1.00
573;DHT22;271;51.114;13.780;2023-12-28T01:04:18;6.50;1.00
573;DHT22;271;51.114;13.780;2023-12-28T01:07:05;6.60;1.00
573;DHT22;271;51.114;13.780;2023-12-28T01:09:53;6.50;1.00
573;DHT22;271;51.114;13.780;2023-12-28T01:12:41;6.50;1.00
573;DHT22;271;51.114;13.780;2023-12-28T01:15:30;6.40;1.00
573;DHT22;271;51.114;13.780;2023-12-28T01:18:17;6.40;1.00
573;DHT22;271;51.114;13.780;2023-12-28T01:21:05;6.50;1.00
573;DHT22;271;51.114;13.780;2023-12-28T01:23:53;6.70;1.00
573;DHT22;271;51.114;13.780;2023-12-28T01:26:40;6.70;1.00
573;DHT22;271;51.114;13.780;2023-12-28T01:29:28;6.40;1.00
573;DHT22;271;51.114;13.780;2023-12-28T01:32:17;6.20;1.00
573;DHT22;271;51.114;13.780;2023-12-28T01:35:05;6.00;1.00
573;DHT22;271;51.114;13.780;2023-12-28T01:37:53;5.90;1.00
573;DHT22;271;51.114;13.780;2023-12-28T01:40:44;5.70;1.00
573;DHT22;271;51.114;13.780;2023-12-28T01:43:32;5.70;1.00
573;DHT22;271;51.114;13.780;2023-12-28T01:46:21;5.70;1.00
573;DHT22;271;51.114;13.780;2023-12-28T01:49:10;5.50;1.00
573;DHT22;271;51.114;13.780;2023-12-28T01:51:59;5.40;1.00
573;DHT22;271;51.114;13.780;2023-12-28T01:54:49;5.20;1.00
573;DHT22;271;51.114;13.780;2023-12-28T01:57:37;5.20;1.00
573;DHT22;271;51.114;13.780;2023-12-28T02:00:25;5.10;1.00
573;DHT22;271;51.114;13.780;2023-12-28T02:03:13;5.00;1.00
573;DHT22;271;51.114;13.780;2023-12-28T02:06:03;5.10;1.00
573;DHT22;271;51.114;13.780;2023-12-28T02:08:51;5.30;1.00
573;DHT22;271;51.114;13.780;2023-12-28T02:11:39;5.40;1.00
573;DHT22;271;51.114;13.780;2023-12-28T02:14:26;5.40;1.00
573;DHT22;271;51.114;13.780;2023-12-28T02:17:28;5.50;1.00
573;DHT22;271;51.114;13.780;2023-12-28T02:20:18;6.20;1.00
573;DHT22;271;51.114;13.780;2023-12-28T02:23:09;6.60;1.00
573;DHT22;271;51.114;13.780;2023-12-28T02:25:58;6.90;1.00
573;DHT22;271;51.114;13.780;2023-12-28T02:28:46;7.20;1.00
573;DHT22;271;51.114;13.780;2023-12-28T02:31:39;7.50;1.00
573;DHT22;271;51.114;13.780;2023-12-28T02:34:36;7.60;1.00
573;DHT22;271;51.114;13.780;2023-12-28T02:37:25;7.70;1.00
573;DHT22;271;51.114;13.780;2023-12-28T02:40:15;7.90;1.00
573;DHT22;271;51.114;13.780;2023-12-28T02:43:04;7.90;1.00
573;DHT22;271;51.114;13.780;2023-12-28T02:45:52;8.00;1.00
573;DHT22;271;51.114;13.780;2023-12-28T02:48:40;7.90;1.00
573;DHT22;271;51.114;13.780;2023-12-28T02:51:28;8.00;1.00
573;DHT22;271;51.114;13.780;2023-12-28T02:54:15;8.10;1.00
573;DHT22;271;51.114;13.780;2023-12-28T02:57:03;8.30;1.00
573;DHT22;271;51.114;13.780;2023-12-28T02:59:53;8.40;1.00
573;DHT22;271;51.114;13.780;2023-12-28T03:02:43;8.80;1.00
573;DHT22;271;51.114;13.780;2023-12-28T03:05:30;9.10;1.00
573;DHT22;271;51.114;13.780;2023-12-28T03:08:18;9.40;1.00
573;DHT22;271;51.114;13.780;2023-12-28T03:11:06;9.50;1.00
573;DHT22;271;51.114;13.780;2023-12-28T03:13:53;9.70;1.00
573;DHT22;271;51.114;13.780;2023-12-28T03:16:42;9.80;1.00
573;DHT22;271;51.114;13.780;2023-12-28T03:19:30;9.90;1.00
573;DHT22;271;51.114;13.780;2023-12-28T03:22:17;9.90;1.00
573;DHT22;271;51.114;13.780;2023-12-28T03:25:06;9.80;1.00
573;DHT22;271;51.114;13.780;2023-12-28T03:27:54;9.90;1.00
573;DHT22;271;51.114;13.780;2023-12-28T03:30:42;9.90;1.00
573;DHT22;271;51.114;13.780;2023-12-28T03:33:31;9.90;1.00
573;DHT22;271;51.114;13.780;2023-12-28T03:36:18;9.90;1.00
573;DHT22;271;51.114;13.780;2023-12-28T03:39:07;9.80;1.00
573;DHT22;271;51.114;13.780;2023-12-28T03:41:55;9.60;1.00
573;DHT22;271;51.114;13.780;2023-12-28T03:44:42;9.50;1.00
573;DHT22;271;51.114;13.780;2023-12-28T03:47:30;9.50;1.00
573;DHT22;271;51.114;13.780;2023-12-28T03:50:19;9.50;1.00
573;DHT22;271;51.114;13.780;2023-12-28T03:53:07;9.50;1.00
573;DHT22;271;51.114;13.780;2023-12-28T03:55:54;9.50;1.00
573;DHT22;271;51.114;13.780;2023-12-28T03:58:42;9.50;1.00
573;DHT22;271;51.114;13.780;2023-12-28T04:01:29;9.60;1.00
573;DHT22;271;51.114;13.780;2023-12-28T04:04:17;9.80;1.00
573;DHT22;271;51.114;13.780;2023-12-28T04:07:06;10.00;1.00
573;DHT22;271;51.114;13.780;2023-12-28T04:09:54;10.20;1.00
573;DHT22;271;51.114;13.780;2023-12-28T04:12:42;10.20;1.00
573;DHT22;271;51.114;13.780;2023-12-28T04:15:30;10.20;1.00
573;DHT22;271;51.114;13.780;2023-12-28T04:18:18;10.30;1.00
573;DHT22;271;51.114;13.780;2023-12-28T04:21:08;10.40;1.00
573;DHT22;271;51.114;13.780;2023-12-28T04:23:57;10.50;1.00
573;DHT22;271;51.114;13.780;2023-12-28T04:26:45;10.60;1.00
573;DHT22;271;51.114;13.780;2023-12-28T04:29:34;10.60;1.00
573;DHT22;271;51.114;13.780;2023-12-28T04:32:22;10.60;1.00
573;DHT22;271;51.114;13.780;2023-12-28T04:35:10;10.70;1.00
573;DHT22;271;51.114;13.780;2023-12-28T04:37:58;10.80;1.00
573;DHT22;271;51.114;13.780;2023-12-28T04:40:47;10.80;1.00
573;DHT22;271;51.114;13.780;2023-12-28T04:43:34;10.80;1.00
573;DHT22;271;51.114;13.780;2023-12-28T04:46:22;10.80;1.00
573;DHT22;271;51.114;13.780;2023-12-28T04:49:10;10.80;1.00
573;DHT22;271;51.114;13.780;2023-12-28T04:51:58;10.80;1.00
573;DHT22;271;51.114;13.780;2023-12-28T04:54:46;10.80;1.00
573;DHT22;271;51.114;13.780;2023-12-28T04:57:35;10.80;1.00
573;DHT22;271;51.114;13.780;2023-12-28T05:00:23;10.80;1.00
573;DHT22;271;51.114;13.780;2023-12-28T05:03:10;10.80;1.00
573;DHT22;271;51.114;13.780;2023-12-28T05:05:58;10.80;1.00
573;DHT22;271;51.114;13.780;2023-12-28T05:08:46;10.90;1.00
573;DHT22;271;51.114;13.780;2023-12-28T05:11:33;11.00;1.00
573;DHT22;271;51.114;13.780;2023-12-28T05:14:22;11.00;1.00
573;DHT22;271;51.114;13.780;2023-12-28T05:17:10;11.10;1.00
573;DHT22;271;51.114;13.780;2023-12-28T05:19:58;11.20;1.00
573;DHT22;271;51.114;13.780;2023-12-28T05:22:45;11.20;1.00
573;DHT22;271;51.114;13.780;2023-12-28T05:25:33;11.10;1.00
573;DHT22;271;51.114;13.780;2023-12-28T05:28:20;11.10;1.00
573;DHT22;271;51.114;13.780;2023-12-28T05:31:09;11.10;1.00
573;DHT22;271;51.114;13.780;2023-12-28T05:33:59;11.10;1.00
573;DHT22;271;51.114;13.780;2023-12-28T05:36:47;11.10;1.00
573;DHT22;271;51.114;13.780;2023-12-28T05:39:34;11.10;1.00
573;DHT22;271;51.114;13.780;2023-12-28T05:42:22;11.10;1.00
573;DHT22;271;51.114;13.780;2023-12-28T05:45:10;11.10;1.00
573;DHT22;271;51.114;13.780;2023-12-28T05:47:59;11.00;1.00
573;DHT22;271;51.114;13.780;2023-12-28T05:50:47;11.00;1.00
573;DHT22;271;51.114;13.780;2023-12-28T05:53:35;11.00;1.00
573;DHT22;271;51.114;13.780;2023-12-28T05:56:23;11.00;1.00
573;DHT22;271;51.114;13.780;2023-12-28T05:59:11;10.90;1.00
573;DHT22;271;51.114;13.780;2023-12-28T06:01:58;10.90;1.00
573;DHT22;271;51.114;13.780;2023-12-28T06:04:47;10.80;1.00
573;DHT22;271;51.114;13.780;2023-12-28T06:07:35;10.90;1.00
573;DHT22;271;51.114;13.780;2023-12-28T06:10:23;10.90;1.00
573;DHT22;271;51.114;13.780;2023-12-28T06:13:11;10.90;1.00
573;DHT22;271;51.114;13.780;2023-12-28T06:15:59;10.80;1.00
573;DHT22;271;51.114;13.780;2023-12-28T06:18:47;10.90;1.00
573;DHT22;271;51.114;13.780;2023-12-28T06:21:36;10.90;1.00
573;DHT22;271;51.114;13.780;2023-12-28T06:24:23;10.90;1.00
573;DHT22;271;51.114;13.780;2023-12-28T06:27:11;10.90;1.00
573;DHT22;271;51.114;13.780;2023-12-28T06:29:58;10.90;1.00
573;DHT22;271;51.114;13.780;2023-12-28T06:32:46;10.90;1.00
573;DHT22;271;51.114;13.780;2023-12-28T06:35:34;10.90;1.00
573;DHT22;271;51.114;13.780;2023-12-28T06:38:23;11.00;1.00
573;DHT22;271;51.114;13.780;2023-12-28T06:41:11;11.00;1.00
573;DHT22;271;51.114;13.780;2023-12-28T06:43:59;11.00;1.00
573;DHT22;271;51.114;13.780;2023-12-28T06:46:47;11.00;1.00
573;DHT22;271;51.114;13.780;2023-12-28T06:49:34;11.00;1.00
573;DHT22;271;51.114;13.780;2023-12-28T06:52:22;11.00;1.00
573;DHT22;271;51.114;13.780;2023-12-28T06:55:11;10.90;1.00
573;DHT22;271;51.114;13.780;2023-12-28T06:57:58;10.90;1.00
573;DHT22;271;51.114;13.780;2023-12-28T07:00:46;10.90;1.00
573;DHT22;271;51.114;13.780;2023-12-28T07:03:34;10.90;1.00
573;DHT22;271;51.114;13.780;2023-12-28T07:06:21;10.90;1.00
573;DHT22;271;51.114;13.780;2023-12-28T07:09:09;10.80;1.00
573;DHT22;271;51.114;13.780;2023-12-28T07:11:58;10.80;1.00
573;DHT22;271;51.114;13.780;2023-12-28T07:14:46;10.80;1.00
573;DHT22;271;51.114;13.780;2023-12-28T07:17:33;10.80;1.00
573;DHT22;271;51.114;13.780;2023-12-28T07:20:21;10.80;1.00
573;DHT22;271;51.114;13.780;2023-12-28T07:23:09;10.70;1.00
573;DHT22;271;51.114;13.780;2023-12-28T07:25:56;10.70;1.00
573;DHT22;271;51.114;13.780;2023-12-28T07:28:45;10.60;1.00
573;DHT22;271;51.114;13.780;2023-12-28T07:31:34;10.60;1.00
573;DHT22;271;51.114;13.780;2023-12-28T07:34:23;10.60;1.00
573;DHT22;271;51.114;13.780;2023-12-28T07:37:10;10.50;1.00
573;DHT22;271;51.114;13.780;2023-12-28T07:39:58;10.50;1.00
573;DHT22;271;51.114;13.780;2023-12-28T07:42:46;10.50;1.00
573;DHT22;271;51.114;13.780;2023-12-28T07:45:35;10.50;1.00
573;DHT22;271;51.114;13.780;2023-12-28T07:48:25;10.40;1.00
573;DHT22;271;51.114;13.780;2023-12-28T07:51:13;10.50;1.00
573;DHT22;271;51.114;13.780;2023-12-28T07:54:01;10.50;1.00
573;DHT22;271;51.114;13.780;2023-12-28T07:56:48;10.50;1.00
573;DHT22;271;51.114;13.780;2023-12-28T07:59:36;10.50;1.00
573;DHT22;271;51.114;13.780;2023-12-28T08:02:25;10.40;1.00
573;DHT22;271;51.114;13.780;2023-12-28T08:05:13;10.50;1.00
573;DHT22;271;51.114;13.780;2023-12-28T08:08:01;10.50;1.00
573;DHT22;271;51.114;13.780;2023-12-28T08:10:49;10.50;1.00
573;DHT22;271;51.114;13.780;2023-12-28T08:13:37;10.50;1.00
573;DHT22;271;51.114;13.780;2023-12-28T08:16:24;10.50;1.00
573;DHT22;271;51.114;13.780;2023-12-28T08:19:14;10.50;1.00
573;DHT22;271;51.114;13.780;2023-12-28T08:22:02;10.40;1.00
573;DHT22;271;51.114;13.780;2023-12-28T08:24:50;10.40;1.00
573;DHT22;271;51.114;13.780;2023-12-28T08:27:37;10.40;1.00
573;DHT22;271;51.114;13.780;2023-12-28T08:30:25;10.40;1.00
573;DHT22;271;51.114;13.780;2023-12-28T08:33:13;10.40;1.00
573;DHT22;271;51.114;13.780;2023-12-28T08:36:04;10.40;1.00
573;DHT22;271;51.114;13.780;2023-12-28T08:38:52;10.50;1.00
573;DHT22;271;51.114;13.780;2023-12-28T08:41:40;10.50;1.00
573;DHT22;271;51.114;13.780;2023-12-28T08:44:27;10.50;1.00
573;DHT22;271;51.114;13.780;2023-12-28T08:47:15;10.50;1.00
573;DHT22;271;51.114;13.780;2023-12-28T08:50:04;10.50;1.00
573;DHT22;271;51.114;13.780;2023-12-28T08:52:53;10.50;1.00
573;DHT22;271;51.114;13.780;2023-12-28T08:55:41;10.50;1.00
573;DHT22;271;51.114;13.780;2023-12-28T08:58:29;10.50;1.00
573;DHT22;271;51.114;13.780;2023-12-28T09:01:17;10.50;1.00
573;DHT22;271;51.114;13.780;2023-12-28T09:04:05;10.60;1.00
573;DHT22;271;51.114;13.780;2023-12-28T09:06:53;10.60;1.00
573;DHT22;271;51.114;13.780;2023-12-28T09:09:42;10.60;1.00
573;DHT22;271;51.114;13.780;2023-12-28T09:12:30;10.60;1.00
573;DHT22;271;51.114;13.780;2023-12-28T09:15:17;10.60;1.00
573;DHT22;271;51.114;13.780;2023-12-28T09:18:05;10.60;1.00
573;DHT22;271;51.114;13.780;2023-12-28T09:20:53;10.60;1.00
573;DHT22;271;51.114;13.780;2023-12-28T09:23:41;10.60;1.00
573;DHT22;271;51.114;13.780;2023-12-28T09:26:30;10.60;1.00
573;DHT22;271;51.114;13.780;2023-12-28T09:29:19;10.60;1.00
573;DHT22;271;51.114;13.780;2023-12-28T09:32:06;10.60;1.00
573;DHT22;271;51.114;13.780;2023-12-28T09:34:54;10.70;1.00
573;DHT22;271;51.114;13.780;2023-12-28T09:37:42;10.70;1.00
573;DHT22;271;51.114;13.780;2023-12-28T09:40:29;10.70;1.00
573;DHT22;271;51.114;13.780;2023-12-28T09:43:22;10.80;1.00
573;DHT22;271;51.114;13.780;2023-12-28T09:46:10;10.70;1.00
573;DHT22;271;51.114;13.780;2023-12-28T09:48:58;10.80;1.00
573;DHT22;271;51.114;13.780;2023-12-28T09:51:47;10.70;1.00
573;DHT22;271;51.114;13.780;2023-12-28T09:54:35;10.70;1.00
573;DHT22;271;51.114;13.780;2023-12-28T09:57:23;10.60;1.00
573;DHT22;271;51.114;13.780;2023-12-28T10:00:13;10.60;1.00
573;DHT22;271;51.114;13.780;2023-12-28T10:03:00;10.60;1.00
573;DHT22;271;51.114;13.780;2023-12-28T10:05:49;10.60;1.00
573;DHT22;271;51.114;13.780;2023-12-28T10:08:44;10.60;1.00
573;DHT22;271;51.114;13.780;2023-12-28T10:11:32;10.50;1.00
573;DHT22;271;51.114;13.780;2023-12-28T10:14:20;10.50;1.00
573;DHT22;271;51.114;13.780;2023-12-28T10:17:09;10.50;1.00
573;DHT22;271;51.114;13.780;2023-12-28T10:19:57;10.50;1.00
573;DHT22;271;51.114;13.780;2023-12-28T10:22:50;10.50;1.00
573;DHT22;271;51.114;13.780;2023-12-28T10:25:38;10.50;1.00
573;DHT22;271;51.114;13.780;2023-12-28T10:28:31;10.50;1.00
573;DHT22;271;51.114;13.780;2023-12-28T10:31:21;10.60;1.00
573;DHT22;271;51.114;13.780;2023-12-28T10:34:10;10.60;1.00
573;DHT22;271;51.114;13.780;2023-12-28T10:36:59;10.60;1.00
573;DHT22;271;51.114;13.780;2023-12-28T10:39:49;10.60;1.00
573;DHT22;271;51.114;13.780;2023-12-28T10:42:50;10.60;1.00
573;DHT22;271;51.114;13.780;2023-12-28T10:45:40;10.50;1.00
573;DHT22;271;51.114;13.780;2023-12-28T10:48:33;10.50;1.00
573;DHT22;271;51.114;13.780;2023-12-28T10:51:26;10.50;1.00
573;DHT22;271;51.114;13.780;2023-12-28T10:54:23;10.50;1.00
573;DHT22;271;51.114;13.780;2023-12-28T10:57:21;10.50;1.00
573;DHT22;271;51.114;13.780;2023-12-28T11:00:14;10.50;1.00
573;DHT22;271;51.114;13.780;2023-12-28T11:03:06;10.60;1.00
573;DHT22;271;51.114;13.780;2023-12-28T11:05:56;10.50;1.00
573;DHT22;271;51.114;13.780;2023-12-28T11:08:47;10.50;1.00
573;DHT22;271;51.114;13.780;2023-12-28T11:11:38;10.50;1.00
573;DHT22;271;51.114;13.780;2023-12-28T11:14:27;10.60;1.00
573;DHT22;271;51.114;13.780;2023-12-28T11:17:16;10.60;1.00
573;DHT22;271;51.114;13.780;2023-12-28T11:20:05;10.60;1.00
573;DHT22;271;51.114;13.780;2023-12-28T11:22:55;10.70;1.00
573;DHT22;271;51.114;13.780;2023-12-28T11:25:45;10.70;1.00
573;DHT22;271;51.114;13.780;2023-12-28T11:28:32;10.70;1.00
573;DHT22;271;51.114;13.780;2023-12-28T11:31:20;10.80;1.00
573;DHT22;271;51.114;13.780;2023-12-28T11:34:13;10.80;1.00
573;DHT22;271;51.114;13.780;2023-12-28T11:37:04;10.90;1.00
573;DHT22;271;51.114;13.780;2023-12-28T11:39:53;10.90;1.00
573;DHT22;271;51.114;13.780;2023-12-28T11:42:52;10.90;1.00
573;DHT22;271;51.114;13.780;2023-12-28T11:45:47;10.90;1.00
573;DHT22;271;51.114;13.780;2023-12-28T11:48:35;10.90;1.00
573;DHT22;271;51.114;13.780;2023-12-28T11:51:23;10.90;1.00
573;DHT22;271;51.114;13.780;2023-12-28T11:54:10;10.90;1.00
573;DHT22;271;51.114;13.780;2023-12-28T11:56:58;10.90;1.00
573;DHT22;271;51.114;13.780;2023-12-28T11:59:48;10.90;1.00
573;DHT22;271;51.114;13.780;2023-12-28T12:02:43;10.90;1.00
573;DHT22;271;51.114;13.780;2023-12-28T12:05:32;10.90;1.00
573;DHT22;271;51.114;13.780;2023-12-28T12:08:19;10.90;1.00
573;DHT22;271;51.114;13.780;2023-12-28T12:11:07;10.90;1.00
573;DHT22;271;51.114;13.780;2023-12-28T12:13:55;10.80;1.00
573;DHT22;271;51.114;13.780;2023-12-28T12:16:44;10.80;1.00
573;DHT22;271;51.114;13.780;2023-12-28T12:19:32;10.80;1.00
573;DHT22;271;51.114;13.780;2023-12-28T12:22:19;10.80;1.00
573;DHT22;271;51.114;13.780;2023-12-28T12:25:11;10.80;1.00
573;DHT22;271;51.114;13.780;2023-12-28T12:27:59;10.70;1.00
573;DHT22;271;51.114;13.780;2023-12-28T12:30:51;10.60;1.00
573;DHT22;271;51.114;13.780;2023-12-28T12:33:41;10.60;1.00
573;DHT22;271;51.114;13.780;2023-12-28T12:36:29;10.50;1.00
573;DHT22;271;51.114;13.780;2023-12-28T12:39:16;10.50;1.00
573;DHT22;271;51.114;13.780;2023-12-28T12:42:04;10.50;1.00
573;DHT22;271;51.114;13.780;2023-12-28T12:44:53;10.50;1.00
573;DHT22;271;51.114;13.780;2023-12-28T12:47:40;10.50;1.00
573;DHT22;271;51.114;13.780;2023-12-28T12:50:31;10.40;1.00
573;DHT22;271;51.114;13.780;2023-12-28T12:53:20;10.40;1.00
573;DHT22;271;51.114;13.780;2023-12-28T12:56:11;10.30;1.00
573;DHT22;271;51.114;13.780;2023-12-28T12:59:01;10.30;1.00
573;DHT22;271;51.114;13.780;2023-12-28T13:01:48;10.40;1.00
573;DHT22;271;51.114;13.780;2023-12-28T13:04:38;10.40;1.00
573;DHT22;271;51.114;13.780;2023-12-28T13:07:27;10.40;1.00
573;DHT22;271;51.114;13.780;2023-12-28T13:10:15;10.40;1.00
573;DHT22;271;51.114;13.780;2023-12-28T13:13:06;10.50;1.00
573;DHT22;271;51.114;13.780;2023-12-28T13:15:54;10.50;1.00
573;DHT22;271;51.114;13.780;2023-12-28T13:18:42;10.50;1.00
573;DHT22;271;51.114;13.780;2023-12-28T13:21:30;10.50;1.00
573;DHT22;271;51.114;13.780;2023-12-28T13:24:21;10.40;1.00
573;DHT22;271;51.114;13.780;2023-12-28T13:27:16;10.40;1.00
573;DHT22;271;51.114;13.780;2023-12-28T13:30:06;10.60;1.00
573;DHT22;271;51.114;13.780;2023-12-28T13:32:55;10.50;1.00
573;DHT22;271;51.114;13.780;2023-12-28T13:35:43;10.60;1.00
573;DHT22;271;51.114;13.780;2023-12-28T13:38:31;10.60;1.00
573;DHT22;271;51.114;13.780;2023-12-28T13:41:23;10.60;1.00
573;DHT22;271;51.114;13.780;2023-12-28T13:44:11;10.70;1.00
573;DHT22;271;51.114;13.780;2023-12-28T13:46:59;10.70;1.00
573;DHT22;271;51.114;13.780;2023-12-28T13:49:46;10.70;1.00
573;DHT22;271;51.114;13.780;2023-12-28T13:52:34;10.60;1.00
573;DHT22;271;51.114;13.780;2023-12-28T13:55:23;10.60;1.00
573;DHT22;271;51.114;13.780;2023-12-28T13:58:12;10.50;1.00
573;DHT22;271;51.114;13.780;2023-12-28T14:00:59;10.40;1.00
573;DHT22;271;51.114;13.780;2023-12-28T14:03:47;10.40;1.00
573;DHT22;271;51.114;13.780;2023-12-28T14:06:37;10.40;1.00
573;DHT22;271;51.114;13.780;2023-12-28T14:09:25;10.30;1.00
573;DHT22;271;51.114;13.780;2023-12-28T14:12:22;10.20;1.00
573;DHT22;271;51.114;13.780;2023-12-28T14:15:12;10.10;1.00
573;DHT22;271;51.114;13.780;2023-12-28T14:18:01;10.10;1.00
573;DHT22;271;51.114;13.780;2023-12-28T14:20:51;10.00;1.00
573;DHT22;271;51.114;13.780;2023-12-28T14:23:39;10.00;1.00
573;DHT22;271;51.114;13.780;2023-12-28T14:26:27;9.90;1.00
573;DHT22;271;51.114;13.780;2023-12-28T14:29:15;9.80;1.00
573;DHT22;271;51.114;13.780;2023-12-28T14:32:05;9.80;1.00
573;DHT22;271;51.114;13.780;2023-12-28T14:34:53;9.50;1.00
573;DHT22;271;51.114;13.780;2023-12-28T14:37:41;9.60;1.00
573;DHT22;271;51.114;13.780;2023-12-28T14:40:29;9.50;1.00
573;DHT22;271;51.114;13.780;2023-12-28T14:43:16;9.50;1.00
573;DHT22;271;51.114;13.780;2023-12-28T14:46:04;9.40;1.00
573;DHT22;271;51.114;13.780;2023-12-28T14:48:53;9.20;1.00
573;DHT22;271;51.114;13.780;2023-12-28T14:51:41;9.30;1.00
573;DHT22;271;51.114;13.780;2023-12-28T14:54:29;9.30;1.00
573;DHT22;271;51.114;13.780;2023-12-28T14:57:16;9.20;1.00
573;DHT22;271;51.114;13.780;2023-12-28T15:00:05;9.20;1.00
573;DHT22;271;51.114;13.780;2023-12-28T15:02:53;9.20;1.00
573;DHT22;271;51.114;13.780;2023-12-28T15:05:42;9.20;1.00
573;DHT22;271;51.114;13.780;2023-12-28T15:08:30;9.10;1.00
573;DHT22;271;51.114;13.780;2023-12-28T15:11:18;9.20;1.00
573;DHT22;271;51.114;13.780;2023-12-28T15:14:06;9.10;1.00
573;DHT22;271;51.114;13.780;2023-12-28T15:16:55;9.10;1.00
573;DHT22;271;51.114;13.780;2023-12-28T15:19:43;9.00;1.00
573;DHT22;271;51.114;13.780;2023-12-28T15:22:32;9.00;1.00
573;DHT22;271;51.114;13.780;2023-12-28T15:25:20;8.70;1.00
573;DHT22;271;51.114;13.780;2023-12-28T15:28:08;8.80;1.00
573;DHT22;271;51.114;13.780;2023-12-28T15:30:55;8.80;1.00
573;DHT22;271;51.114;13.780;2023-12-28T15:33:43;8.70;1.00
573;DHT22;271;51.114;13.780;2023-12-28T15:36:31;8.70;1.00
573;DHT22;271;51.114;13.780;2023-12-28T15:39:20;8.70;1.00
573;DHT22;271;51.114;13.780;2023-12-28T15:42:10;8.60;1.00
573;DHT22;271;51.114;13.780;2023-12-28T15:44:58;8.40;1.00
573;DHT22;271;51.114;13.780;2023-12-28T15:47:45;8.30;1.00
573;DHT22;271;51.114;13.780;2023-12-28T15:50:33;8.10;1.00
573;DHT22;271;51.114;13.780;2023-12-28T15:53:21;8.00;1.00
573;DHT22;271;51.114;13.780;2023-12-28T15:56:19;7.80;1.00
573;DHT22;271;51.114;13.780;2023-12-28T15:59:07;7.80;1.00
573;DHT22;271;51.114;13.780;2023-12-28T16:01:55;7.70;1.00
573;DHT22;271;51.114;13.780;2023-12-28T16:04:43;7.50;1.00
573;DHT22;271;51.114;13.780;2023-12-28T16:07:30;7.30;1.00
573;DHT22;271;51.114;13.780;2023-12-28T16:10:18;7.20;1.00
573;DHT22;271;51.114;13.780;2023-12-28T16:13:07;7.10;1.00
573;DHT22;271;51.114;13.780;2023-12-28T16:15:55;6.90;1.00
573;DHT22;271;51.114;13.780;2023-12-28T16:18:44;6.70;1.00
573;DHT22;271;51.114;13.780;2023-12-28T16:21:32;6.60;1.00
573;DHT22;271;51.114;13.780;2023-12-28T16:24:20;6.60;1.00
573;DHT22;271;51.114;13.780;2023-12-28T16:27:08;6.50;1.00
573;DHT22;271;51.114;13.780;2023-12-28T16:29:57;6.50;1.00
573;DHT22;271;51.114;13.780;2023-12-28T16:32:44;6.50;1.00
573;DHT22;271;51.114;13.780;2023-12-28T16:35:34;6.50;1.00
573;DHT22;271;51.114;13.780;2023-12-28T16:38:22;6.40;1.00
573;DHT22;271;51.114;13.780;2023-12-28T16:41:10;6.30;1.00
573;DHT22;271;51.114;13.780;2023-12-28T16:43:58;6.10;1.00
573;DHT22;271;51.114;13.780;2023-12-28T16:46:47;6.20;1.00
573;DHT22;271;51.114;13.780;2023-12-28T16:49:36;6.00;1.00
573;DHT22;271;51.114;13.780;2023-12-28T16:52:24;6.00;1.00
573;DHT22;271;51.114;13.780;2023-12-28T16:55:11;5.80;1.00
573;DHT22;271;51.114;13.780;2023-12-28T16:57:59;5.90;1.00
573;DHT22;271;51.114;13.780;2023-12-28T17:00:48;5.80;1.00
573;DHT22;271;51.114;13.780;2023-12-28T17:03:37;5.70;1.00
573;DHT22;271;51.114;13.780;2023-12-28T17:06:25;5.70;1.00
573;DHT22;271;51.114;13.780;2023-12-28T17:09:13;5.60;1.00
573;DHT22;271;51.114;13.780;2023-12-28T17:12:08;5.60;1.00
573;DHT22;271;51.114;13.780;2023-12-28T17:14:57;5.50;1.00
573;DHT22;271;51.114;13.780;2023-12-28T17:17:48;5.40;1.00
573;DHT22;271;51.114;13.780;2023-12-28T17:20:38;5.40;1.00
573;DHT22;271;51.114;13.780;2023-12-28T17:23:33;5.30;1.00
573;DHT22;271;51.114;13.780;2023-12-28T17:26:25;5.30;1.00
573;DHT22;271;51.114;13.780;2023-12-28T17:29:14;5.20;1.00
573;DHT22;271;51.114;13.780;2023-12-28T17:32:02;4.90;1.00
573;DHT22;271;51.114;13.780;2023-12-28T17:34:54;5.10;1.00
573;DHT22;271;51.114;13.780;2023-12-28T17:37:44;5.00;1.00
573;DHT22;271;51.114;13.780;2023-12-28T17:40:32;5.00;1.00
573;DHT22;271;51.114;13.780;2023-12-28T17:43:25;5.10;1.00
573;DHT22;271;51.114;13.780;2023-12-28T17:46:18;5.00;1.00
573;DHT22;271;51.114;13.780;2023-12-28T17:49:11;5.00;1.00
573;DHT22;271;51.114;13.780;2023-12-28T17:52:02;4.90;1.00
573;DHT22;271;51.114;13.780;2023-12-28T17:54:52;5.00;1.00
573;DHT22;271;51.114;13.780;2023-12-28T17:57:40;5.00;1.00
573;DHT22;271;51.114;13.780;2023-12-28T18:00:28;5.00;1.00
573;DHT22;271;51.114;13.780;2023-12-28T18:03:17;5.00;1.00
573;DHT22;271;51.114;13.780;2023-12-28T18:06:06;5.00;1.00
573;DHT22;271;51.114;13.780;2023-12-28T18:08:54;5.00;1.00
573;DHT22;271;51.114;13.780;2023-12-28T18:11:47;5.00;1.00
573;DHT22;271;51.114;13.780;2023-12-28T18:14:35;5.00;1.00
573;DHT22;271;51.114;13.780;2023-12-28T18:17:24;5.10;1.00
573;DHT22;271;51.114;13.780;2023-12-28T18:20:16;5.10;1.00
573;DHT22;271;51.114;13.780;2023-12-28T18:23:04;5.30;1.00
573;DHT22;271;51.114;13.780;2023-12-28T18:25:52;5.30;1.00
573;DHT22;271;51.114;13.780;2023-12-28T18:28:43;5.30;1.00
573;DHT22;271;51.114;13.780;2023-12-28T18:31:32;5.30;1.00
573;DHT22;271;51.114;13.780;2023-12-28T18:34:20;5.30;1.00
573;DHT22;271;51.114;13.780;2023-12-28T18:37:08;5.60;1.00
573;DHT22;271;51.114;13.780;2023-12-28T18:39:56;5.70;1.00
573;DHT22;271;51.114;13.780;2023-12-28T18:42:45;5.80;1.00
573;DHT22;271;51.114;13.780;2023-12-28T18:45:35;5.70;1.00
573;DHT22;271;51.114;13.780;2023-12-28T18:48:24;5.70;1.00
573;DHT22;271;51.114;13.780;2023-12-28T18:51:14;5.70;1.00
573;DHT22;271;51.114;13.780;2023-12-28T18:54:02;5.60;1.00
573;DHT22;271;51.114;13.780;2023-12-28T18:56:51;5.50;1.00
573;DHT22;271;51.114;13.780;2023-12-28T18:59:39;5.50;1.00
573;DHT22;271;51.114;13.780;2023-12-28T19:02:29;5.50;1.00
573;DHT22;271;51.114;13.780;2023-12-28T19:05:17;5.40;1.00
573;DHT22;271;51.114;13.780;2023-12-28T19:08:06;5.40;1.00